createdAt,value
2023-04-23T00:02:02.915Z,2.85
2023-04-23T00:04:35.165Z,2.63
2023-04-23T00:07:04.491Z,2.55
2023-04-23T00:09:33.475Z,2.40
2023-04-23T00:12:02.102Z,2.60
2023-04-23T00:14:30.502Z,2.20
2023-04-23T00:16:59.058Z,2.28
2023-04-23T00:19:28.416Z,2.25
2023-04-23T00:21:56.355Z,2.30
2023-04-23T00:24:24.318Z,2.63
2023-04-23T00:26:52.944Z,2.60
2023-04-23T00:29:20.870Z,2.40
2023-04-23T00:31:48.858Z,2.53
2023-04-23T00:34:16.916Z,2.67
2023-04-23T00:36:46.204Z,2.10
2023-04-23T00:39:14.144Z,2.40
2023-04-23T00:41:42.626Z,2.58
2023-04-23T00:44:10.605Z,2.80
2023-04-23T00:46:39.053Z,2.40
2023-04-23T00:49:07.228Z,2.58
2023-04-23T00:51:35.338Z,2.55
2023-04-23T00:54:04.846Z,2.70
2023-04-23T00:56:32.861Z,2.67
2023-04-23T00:59:03.209Z,2.47
2023-04-23T01:01:31.462Z,2.70
2023-04-23T01:04:00.278Z,2.30
2023-04-23T01:06:29.986Z,2.10
2023-04-23T01:08:58.294Z,2.00
2023-04-23T01:11:27.964Z,2.60
2023-04-23T01:13:57.985Z,2.20
2023-04-23T01:16:26.068Z,2.42
2023-04-23T01:18:54.019Z,2.60
2023-04-23T01:21:22.331Z,2.40
2023-04-23T01:23:51.933Z,2.80
2023-04-23T01:26:20.306Z,2.35
2023-04-23T01:28:48.711Z,2.50
2023-04-23T01:31:17.588Z,2.78
2023-04-23T01:33:46.675Z,2.20
2023-04-23T01:36:15.069Z,2.40
2023-04-23T01:38:43.065Z,2.30
2023-04-23T01:41:12.489Z,2.45
2023-04-23T01:43:42.782Z,2.53
2023-04-23T01:46:11.603Z,2.50
2023-04-23T01:48:40.149Z,2.30
2023-04-23T01:51:08.931Z,2.85
2023-04-23T01:53:36.856Z,2.50
2023-04-23T01:56:06.257Z,2.25
2023-04-23T01:58:35.680Z,2.38
2023-04-23T02:01:03.821Z,2.40
2023-04-23T02:03:33.999Z,2.05
2023-04-23T02:06:02.239Z,2.42
2023-04-23T02:08:30.273Z,2.60
2023-04-23T02:10:58.272Z,2.50
2023-04-23T02:13:26.203Z,2.53
2023-04-23T02:15:55.591Z,2.60
2023-04-23T02:18:23.514Z,3.28
2023-04-23T02:20:51.420Z,2.80
2023-04-23T02:23:19.423Z,2.83
2023-04-23T02:25:47.408Z,2.55
2023-04-23T02:28:15.411Z,2.58
2023-04-23T02:30:46.028Z,2.80
2023-04-23T02:33:15.499Z,2.80
2023-04-23T02:35:43.391Z,2.55
2023-04-23T02:38:11.382Z,3.35
2023-04-23T02:40:39.332Z,3.47
2023-04-23T02:43:07.357Z,3.03
2023-04-23T02:45:35.286Z,2.50
2023-04-23T02:48:04.234Z,3.00
2023-04-23T02:50:33.643Z,3.13
2023-04-23T02:53:01.634Z,3.40
2023-04-23T02:55:31.958Z,3.03
2023-04-23T02:58:00.529Z,3.05
2023-04-23T03:00:28.744Z,2.78
2023-04-23T03:02:56.860Z,3.20
2023-04-23T03:05:24.904Z,3.45
2023-04-23T03:07:54.168Z,3.00
2023-04-23T03:10:22.086Z,3.08
2023-04-23T03:12:50.059Z,3.28
2023-04-23T03:15:17.994Z,3.28
2023-04-23T03:17:47.498Z,3.10
2023-04-23T03:20:15.872Z,3.47
2023-04-23T03:22:43.812Z,3.55
2023-04-23T03:25:13.166Z,3.53
2023-04-23T03:27:41.526Z,3.25
2023-04-23T03:30:10.914Z,3.35
2023-04-23T03:32:39.700Z,2.90
2023-04-23T03:35:09.560Z,2.85
2023-04-23T03:37:37.636Z,3.00
2023-04-23T03:40:07.698Z,3.30
2023-04-23T03:42:37.245Z,3.80
2023-04-23T03:45:05.872Z,3.10
2023-04-23T03:47:33.946Z,2.70
2023-04-23T03:50:02.018Z,2.80
2023-04-23T03:52:29.973Z,3.30
2023-04-23T03:54:57.953Z,3.03
2023-04-23T03:57:25.860Z,3.17
2023-04-23T03:59:55.240Z,2.90
2023-04-23T04:02:24.426Z,3.20
2023-04-23T04:04:54.917Z,3.05
2023-04-23T04:07:23.141Z,2.65
2023-04-23T04:09:51.073Z,2.50
2023-04-23T04:12:19.035Z,2.88
2023-04-23T04:14:46.996Z,2.35
2023-04-23T04:17:16.473Z,1.95
2023-04-23T04:19:44.573Z,1.95
2023-04-23T04:22:12.894Z,2.00
2023-04-23T04:24:42.236Z,2.20
2023-04-23T04:27:11.801Z,1.95
2023-04-23T04:29:40.801Z,1.70
2023-04-23T04:32:09.416Z,6.18
2023-04-23T04:34:39.285Z,9.43
2023-04-23T04:37:07.735Z,2.47
2023-04-23T04:39:35.718Z,1.90
2023-04-23T04:42:03.856Z,2.60
2023-04-23T04:44:32.275Z,2.28
2023-04-23T04:47:00.796Z,1.75
2023-04-23T04:49:28.758Z,2.00
2023-04-23T04:51:58.380Z,1.35
2023-04-23T04:54:26.285Z,1.35
2023-04-23T04:56:54.422Z,1.50
2023-04-23T04:59:22.411Z,1.48
2023-04-23T05:01:50.385Z,1.48
2023-04-23T05:04:18.463Z,1.20
2023-04-23T05:06:46.488Z,1.40
2023-04-23T05:09:15.809Z,1.23
2023-04-23T05:11:44.119Z,1.30
2023-04-23T05:14:13.503Z,1.25
2023-04-23T05:16:41.498Z,1.10
2023-04-23T05:19:09.766Z,1.20
2023-04-23T05:21:37.774Z,1.40
2023-04-23T05:24:06.107Z,1.00
2023-04-23T05:26:35.701Z,1.02
2023-04-23T05:29:04.069Z,1.00
2023-04-23T05:31:32.530Z,0.82
2023-04-23T05:34:01.221Z,1.15
2023-04-23T05:36:29.111Z,0.90
2023-04-23T05:38:57.275Z,1.00
2023-04-23T05:41:26.007Z,1.60
2023-04-23T05:43:55.470Z,1.30
2023-04-23T05:46:23.486Z,1.77
2023-04-23T05:48:51.573Z,1.70
2023-04-23T05:51:19.505Z,1.48
2023-04-23T05:53:47.567Z,2.67
2023-04-23T05:56:15.612Z,10.68
2023-04-23T05:58:43.638Z,3.00
2023-04-23T06:01:13.125Z,1.80
2023-04-23T06:03:45.474Z,1.30
2023-04-23T06:06:13.862Z,1.30
2023-04-23T06:08:41.847Z,0.88
2023-04-23T06:11:09.852Z,0.70
2023-04-23T06:13:42.827Z,1.17
2023-04-23T06:16:12.853Z,2.53
2023-04-23T06:18:41.101Z,0.80
2023-04-23T06:21:09.516Z,0.75
2023-04-23T06:23:37.590Z,1.83
2023-04-23T06:26:05.685Z,0.68
2023-04-23T06:28:33.687Z,1.10
2023-04-23T06:31:05.956Z,1.45
2023-04-23T06:33:36.859Z,0.90
2023-04-23T06:36:05.433Z,0.73
2023-04-23T06:38:33.411Z,0.95
2023-04-23T06:41:01.473Z,0.80
2023-04-23T06:43:29.409Z,0.80
2023-04-23T06:45:57.443Z,0.60
2023-04-23T06:48:26.222Z,0.60
2023-04-23T06:50:55.612Z,0.70
2023-04-23T06:53:23.594Z,0.70
2023-04-23T06:55:51.666Z,0.75
2023-04-23T06:58:19.840Z,7.32
2023-04-23T07:00:47.972Z,3.78
2023-04-23T07:03:16.066Z,1.50
2023-04-23T07:05:44.029Z,1.20
2023-04-23T07:08:14.575Z,0.90
2023-04-23T07:10:42.590Z,0.82
2023-04-23T07:13:10.584Z,1.00
2023-04-23T07:15:38.567Z,0.93
2023-04-23T07:18:06.842Z,0.88
2023-04-23T07:20:34.880Z,0.80
2023-04-23T07:23:04.063Z,0.60
2023-04-23T07:25:33.609Z,0.70
2023-04-23T07:28:01.674Z,0.65
2023-04-23T07:30:30.086Z,1.05
2023-04-23T07:32:58.153Z,4.85
2023-04-23T07:35:26.715Z,12.32
2023-04-23T07:37:56.079Z,6.95
2023-04-23T07:40:24.616Z,2.30
2023-04-23T07:42:54.272Z,1.10
2023-04-23T07:45:22.240Z,0.60
2023-04-23T07:47:51.548Z,3.33
2023-04-23T07:50:19.548Z,25.00
2023-04-23T07:52:47.783Z,18.75
2023-04-23T07:55:15.812Z,7.45
2023-04-23T07:57:43.883Z,1.95
2023-04-23T08:00:14.468Z,0.70
2023-04-23T08:02:42.785Z,0.98
2023-04-23T08:05:11.459Z,1.00
2023-04-23T08:07:39.710Z,0.70
2023-04-23T08:10:08.882Z,1.00
2023-04-23T08:12:36.886Z,0.90
2023-04-23T08:15:07.184Z,0.70
2023-04-23T08:17:36.630Z,0.80
2023-04-23T08:20:06.604Z,1.08
2023-04-23T08:22:34.602Z,1.13
2023-04-23T08:25:02.563Z,1.25
2023-04-23T08:27:30.737Z,0.85
2023-04-23T08:29:58.727Z,1.00
2023-04-23T08:32:26.943Z,1.00
2023-04-23T08:34:56.257Z,0.90
2023-04-23T08:37:30.959Z,0.85
2023-04-23T08:39:59.960Z,1.00
2023-04-23T08:42:35.217Z,0.90
2023-04-23T08:45:04.488Z,0.77
2023-04-23T08:47:34.266Z,0.60
2023-04-23T08:50:06.123Z,1.08
2023-04-23T08:52:36.119Z,0.80
2023-04-23T08:55:10.644Z,1.80
2023-04-23T08:57:41.146Z,1.08
2023-04-23T09:00:11.031Z,1.73
2023-04-23T09:02:41.080Z,0.80
2023-04-23T09:05:10.970Z,0.90
2023-04-23T09:07:39.114Z,0.90
2023-04-23T09:10:09.388Z,1.00
2023-04-23T09:12:38.859Z,1.90
2023-04-23T09:15:10.750Z,1.48
2023-04-23T09:17:41.406Z,1.70
2023-04-23T09:20:12.366Z,1.08
2023-04-23T09:22:43.713Z,1.80
2023-04-23T09:25:14.841Z,0.70
2023-04-23T09:27:42.823Z,0.90
2023-04-23T09:30:12.381Z,0.82
2023-04-23T09:32:42.215Z,0.80
2023-04-23T09:35:15.103Z,0.90
2023-04-23T09:37:49.790Z,0.90
2023-04-23T09:40:19.933Z,0.75
2023-04-23T09:42:49.731Z,0.95
2023-04-23T09:45:18.427Z,0.70
2023-04-23T09:47:52.288Z,1.30
2023-04-23T09:50:32.454Z,1.30
2023-04-23T09:53:00.500Z,2.92
2023-04-23T09:55:31.004Z,1.55
2023-04-23T09:57:59.955Z,1.73
2023-04-23T10:00:30.670Z,1.10
2023-04-23T10:03:01.383Z,1.50
2023-04-23T10:05:40.668Z,1.20
2023-04-23T10:08:18.485Z,1.20
2023-04-23T10:10:59.599Z,1.35
2023-04-23T10:13:35.688Z,1.27
2023-04-23T10:16:20.463Z,1.10
2023-04-23T10:18:52.069Z,1.20
2023-04-23T10:21:24.748Z,1.02
2023-04-23T10:23:52.888Z,1.10
2023-04-23T10:26:23.861Z,1.10
2023-04-23T10:28:54.710Z,1.02
2023-04-23T10:31:23.627Z,1.17
2023-04-23T10:33:59.196Z,1.20
2023-04-23T10:36:29.700Z,1.33
2023-04-23T10:39:00.690Z,1.25
2023-04-23T10:41:34.756Z,1.33
2023-04-23T10:44:03.615Z,1.02
2023-04-23T10:46:32.450Z,1.30
2023-04-23T10:49:14.357Z,1.10
2023-04-23T10:52:17.654Z,1.10
2023-04-23T10:54:36.139Z,1.13
2023-04-23T10:57:05.600Z,1.10
2023-04-23T10:59:36.160Z,1.10
2023-04-23T11:02:09.016Z,1.17
2023-04-23T11:04:42.579Z,0.98
2023-04-23T11:07:12.963Z,1.00
2023-04-23T11:09:42.600Z,1.13
2023-04-23T11:12:13.579Z,1.00
2023-04-23T11:14:48.410Z,1.10
2023-04-23T11:17:17.672Z,1.00
2023-04-23T11:20:10.189Z,1.00
2023-04-23T11:22:41.121Z,1.10
2023-04-23T11:25:11.503Z,1.70
2023-04-23T11:27:41.965Z,1.10
2023-04-23T11:30:14.259Z,1.10
2023-04-23T11:32:42.946Z,1.08
2023-04-23T11:35:13.740Z,1.00
2023-04-23T11:37:45.116Z,1.05
2023-04-23T11:40:18.838Z,1.10
2023-04-23T11:42:48.010Z,1.35
2023-04-23T11:45:19.402Z,1.10
2023-04-23T11:47:49.342Z,1.23
2023-04-23T11:50:21.584Z,1.30
2023-04-23T11:52:51.558Z,1.00
2023-04-23T11:55:20.227Z,1.00
2023-04-23T11:57:50.010Z,0.90
2023-04-23T12:00:20.138Z,1.00
2023-04-23T12:02:55.160Z,0.90
2023-04-23T12:05:24.186Z,0.85
2023-04-23T12:07:53.760Z,0.90
2023-04-23T12:10:22.354Z,1.10
2023-04-23T12:12:53.957Z,1.00
2023-04-23T12:15:22.352Z,0.82
2023-04-23T12:17:51.537Z,0.80
2023-04-23T12:20:23.279Z,0.98
2023-04-23T12:22:51.204Z,0.88
2023-04-23T12:25:23.833Z,0.80
2023-04-23T12:27:51.731Z,0.90
2023-04-23T12:30:19.640Z,1.00
2023-04-23T12:32:47.641Z,0.85
2023-04-23T12:35:15.608Z,0.85
2023-04-23T12:37:43.505Z,0.98
2023-04-23T12:40:12.472Z,0.85
2023-04-23T12:42:41.791Z,0.90
2023-04-23T12:45:11.241Z,1.80
2023-04-23T12:47:39.268Z,0.75
2023-04-23T12:50:08.435Z,0.80
2023-04-23T12:52:36.645Z,0.95
2023-04-23T12:55:05.051Z,1.20
2023-04-23T12:57:33.336Z,0.80
2023-04-23T13:00:02.716Z,0.90
2023-04-23T13:02:30.864Z,1.00
2023-04-23T13:05:01.158Z,1.30
2023-04-23T13:07:29.502Z,0.90
2023-04-23T13:09:59.440Z,0.93
2023-04-23T13:12:27.530Z,0.80
2023-04-23T13:14:55.496Z,0.80
2023-04-23T13:17:26.176Z,0.93
2023-04-23T13:19:54.206Z,0.90
2023-04-23T13:22:22.999Z,0.90
2023-04-23T13:24:50.945Z,0.80
2023-04-23T13:27:18.902Z,0.90
2023-04-23T13:29:46.883Z,0.93
2023-04-23T13:32:16.314Z,0.90
2023-04-23T13:34:45.711Z,0.93
2023-04-23T13:37:13.678Z,0.90
2023-04-23T13:39:42.045Z,1.10
2023-04-23T13:42:10.431Z,0.82
2023-04-23T13:44:38.560Z,1.10
2023-04-23T13:47:06.842Z,0.90
2023-04-23T13:49:34.826Z,1.20
2023-04-23T13:52:06.801Z,0.80
2023-04-23T13:54:35.665Z,1.17
2023-04-23T13:57:03.926Z,1.10
2023-04-23T13:59:31.839Z,1.17
2023-04-23T14:02:01.976Z,1.00
2023-04-23T14:04:29.990Z,1.00
2023-04-23T14:06:58.004Z,1.00
2023-04-23T14:09:27.422Z,1.10
2023-04-23T14:11:55.420Z,1.13
2023-04-23T14:14:24.679Z,1.05
2023-04-23T14:16:52.600Z,0.70
2023-04-23T14:19:20.748Z,1.13
2023-04-23T14:21:48.781Z,1.02
2023-04-23T14:24:23.499Z,1.05
2023-04-23T14:26:52.831Z,1.30
2023-04-23T14:29:26.261Z,1.20
2023-04-23T14:31:54.523Z,1.13
2023-04-23T14:34:22.710Z,1.27
2023-04-23T14:36:52.914Z,1.00
2023-04-23T14:39:24.390Z,1.05
2023-04-23T14:41:53.820Z,1.10
2023-04-23T14:44:23.289Z,1.38
2023-04-23T14:46:51.530Z,1.48
2023-04-23T14:49:20.739Z,1.17
2023-04-23T14:51:50.908Z,1.10
2023-04-23T14:54:18.844Z,1.35
2023-04-23T14:56:46.959Z,1.27
2023-04-23T14:59:16.252Z,1.40
2023-04-23T15:01:44.347Z,1.27
2023-04-23T15:04:12.989Z,1.25
2023-04-23T15:06:41.531Z,3.40
2023-04-23T15:09:09.436Z,1.40
2023-04-23T15:11:38.684Z,1.20
2023-04-23T15:14:09.841Z,1.17
2023-04-23T15:16:48.910Z,1.20
2023-04-23T15:19:18.856Z,1.63
2023-04-23T15:21:47.564Z,1.92
2023-04-23T15:24:15.947Z,1.25
2023-04-23T15:26:45.664Z,1.30
2023-04-23T15:29:14.136Z,1.20
2023-04-23T15:31:43.607Z,1.38
2023-04-23T15:34:12.222Z,1.30
2023-04-23T15:36:40.404Z,1.50
2023-04-23T15:39:10.073Z,1.40
2023-04-23T15:41:40.529Z,1.45
2023-04-23T15:44:11.682Z,1.42
2023-04-23T15:46:39.815Z,2.00
2023-04-23T15:49:09.187Z,1.15
2023-04-23T15:51:37.297Z,1.45
2023-04-23T15:54:08.597Z,1.80
2023-04-23T15:56:37.468Z,1.50
2023-04-23T15:59:05.599Z,1.30
2023-04-23T16:01:33.749Z,1.30
2023-04-23T16:04:10.221Z,1.00
2023-04-23T16:06:40.906Z,0.93
2023-04-23T16:09:09.116Z,1.13
2023-04-23T16:11:37.543Z,1.00
2023-04-23T16:14:06.472Z,1.23
2023-04-23T16:16:34.496Z,0.90
2023-04-23T16:19:03.673Z,1.10
2023-04-23T16:21:32.688Z,1.10
2023-04-23T16:24:02.049Z,0.80
2023-04-23T16:26:30.659Z,1.00
2023-04-23T16:29:11.318Z,1.70
2023-04-23T16:31:45.355Z,1.50
2023-04-23T16:34:13.556Z,1.33
2023-04-23T16:36:41.628Z,1.58
2023-04-23T16:39:11.197Z,1.00
2023-04-23T16:41:39.556Z,1.20
2023-04-23T16:44:09.077Z,1.05
2023-04-23T16:46:37.238Z,1.15
2023-04-23T16:49:05.418Z,1.20
2023-04-23T16:51:33.344Z,0.98
2023-04-23T16:54:01.563Z,1.30
2023-04-23T16:56:31.058Z,1.30
2023-04-23T16:59:00.021Z,1.33
2023-04-23T17:01:28.090Z,0.95
2023-04-23T17:03:56.663Z,0.95
2023-04-23T17:06:28.250Z,0.80
2023-04-23T17:08:58.268Z,0.60
2023-04-23T17:11:26.864Z,0.93
2023-04-23T17:13:57.169Z,1.10
2023-04-23T17:16:26.748Z,0.82
2023-04-23T17:18:55.513Z,0.80
2023-04-23T17:21:23.979Z,0.70
2023-04-23T17:23:52.348Z,0.80
2023-04-23T17:26:20.888Z,0.90
2023-04-23T17:28:48.986Z,1.35
2023-04-23T17:31:19.339Z,1.10
2023-04-23T17:33:49.425Z,1.25
2023-04-23T17:36:17.946Z,1.38
2023-04-23T17:38:46.277Z,1.40
2023-04-23T17:41:14.345Z,1.40
2023-04-23T17:43:42.428Z,1.00
2023-04-23T17:46:10.477Z,1.33
2023-04-23T17:48:41.659Z,1.10
2023-04-23T17:51:09.709Z,1.00
2023-04-23T17:53:37.764Z,1.10
2023-04-23T17:56:05.808Z,1.20
2023-04-23T17:58:35.264Z,1.38
2023-04-23T18:01:04.124Z,1.23
2023-04-23T18:03:33.118Z,1.40
2023-04-23T18:06:02.637Z,1.00
2023-04-23T18:08:31.278Z,1.00
2023-04-23T18:10:59.679Z,1.10
2023-04-23T18:13:27.860Z,1.00
2023-04-23T18:15:56.145Z,1.02
2023-04-23T18:18:24.393Z,1.30
2023-04-23T18:20:52.589Z,1.00
2023-04-23T18:23:22.194Z,1.17
2023-04-23T18:25:50.549Z,1.10
2023-04-23T18:28:18.535Z,1.38
2023-04-23T18:30:46.544Z,1.20
2023-04-23T18:33:26.907Z,1.45
2023-04-23T18:35:59.279Z,1.33
2023-04-23T18:38:32.838Z,2.30
2023-04-23T18:41:02.793Z,1.65
2023-04-23T18:43:31.783Z,1.40
2023-04-23T18:45:59.885Z,1.40
2023-04-23T18:48:46.079Z,2.72
2023-04-23T18:51:26.410Z,1.20
2023-04-23T18:53:55.936Z,5.63
2023-04-23T18:56:25.058Z,3.17
2023-04-23T18:58:53.167Z,2.10
2023-04-23T19:01:24.148Z,1.50
2023-04-23T19:03:52.283Z,1.55
2023-04-23T19:06:20.530Z,1.40
2023-04-23T19:08:48.556Z,1.38
2023-04-23T19:11:17.913Z,1.40
2023-04-23T19:13:51.762Z,1.50
2023-04-23T19:16:19.798Z,1.30
2023-04-23T19:18:47.967Z,1.38
2023-04-23T19:21:16.059Z,1.40
2023-04-23T19:23:44.276Z,1.50
2023-04-23T19:26:12.493Z,1.58
2023-04-23T19:28:41.863Z,1.67
2023-04-23T19:31:10.485Z,1.80
2023-04-23T19:33:38.565Z,1.65
2023-04-23T19:36:06.899Z,1.42
2023-04-23T19:38:34.945Z,1.35
2023-04-23T19:41:03.028Z,1.25
2023-04-23T19:43:31.357Z,1.25
2023-04-23T19:46:00.851Z,1.20
2023-04-23T19:48:28.874Z,1.33
2023-04-23T19:50:57.036Z,0.95
2023-04-23T19:53:25.571Z,1.08
2023-04-23T19:55:53.611Z,0.80
2023-04-23T19:58:21.547Z,0.93
2023-04-23T20:00:49.537Z,0.80
2023-04-23T20:03:19.688Z,0.60
2023-04-23T20:05:48.225Z,0.90
2023-04-23T20:08:25.977Z,1.05
2023-04-23T20:10:54.420Z,0.90
2023-04-23T20:13:23.635Z,0.80
2023-04-23T20:15:53.637Z,0.93
2023-04-23T20:18:25.551Z,0.80
2023-04-23T20:20:53.553Z,0.80
2023-04-23T20:23:21.562Z,0.88
2023-04-23T20:25:49.547Z,0.90
2023-04-23T20:28:17.483Z,0.80
2023-04-23T20:30:45.748Z,0.80
2023-04-23T20:33:14.114Z,0.93
2023-04-23T20:35:43.406Z,0.73
2023-04-23T20:38:12.868Z,0.75
2023-04-23T20:40:40.942Z,0.70
2023-04-23T20:43:09.540Z,0.60
2023-04-23T20:45:37.520Z,0.80
2023-04-23T20:48:05.733Z,0.60
2023-04-23T20:50:33.715Z,0.70
2023-04-23T20:53:02.971Z,0.85
2023-04-23T20:55:31.190Z,0.85
2023-04-23T20:57:59.130Z,0.88
2023-04-23T21:00:27.958Z,1.00
2023-04-23T21:02:56.268Z,0.90
2023-04-23T21:05:24.401Z,0.98
2023-04-23T21:07:52.500Z,0.65
2023-04-23T21:10:21.917Z,0.90
2023-04-23T21:12:50.473Z,0.93
2023-04-23T21:15:19.072Z,1.10
2023-04-23T21:17:47.211Z,0.98
2023-04-23T21:20:15.319Z,1.00
2023-04-23T21:22:43.467Z,0.90
2023-04-23T21:25:11.425Z,0.90
2023-04-23T21:27:45.466Z,0.73
2023-04-23T21:30:22.897Z,0.75
2023-04-23T21:32:52.144Z,0.73
2023-04-23T21:35:20.244Z,0.88
2023-04-23T21:37:48.505Z,0.70
2023-04-23T21:40:16.620Z,0.68
2023-04-23T21:42:47.556Z,0.60
2023-04-23T21:45:15.541Z,0.80
2023-04-23T21:47:43.502Z,0.77
2023-04-23T21:50:12.259Z,1.23
2023-04-23T21:52:42.992Z,0.93
2023-04-23T21:55:12.250Z,0.93
2023-04-23T21:57:40.421Z,0.70
2023-04-23T22:00:13.781Z,0.70
2023-04-23T22:02:42.106Z,0.70
2023-04-23T22:05:10.964Z,0.80
2023-04-23T22:07:41.270Z,0.90
2023-04-23T22:10:11.688Z,0.82
2023-04-23T22:12:41.071Z,0.70
2023-04-23T22:15:13.080Z,0.60
2023-04-23T22:17:43.252Z,0.60
2023-04-23T22:20:13.335Z,1.00
2023-04-23T22:22:42.615Z,0.80
2023-04-23T22:25:12.748Z,0.73
2023-04-23T22:27:41.944Z,0.80
2023-04-23T22:30:12.988Z,0.95
2023-04-23T22:32:41.525Z,0.90
2023-04-23T22:35:10.500Z,0.60
2023-04-23T22:37:38.667Z,0.80
2023-04-23T22:40:09.592Z,1.15
2023-04-23T22:42:37.789Z,0.60
2023-04-23T22:45:07.222Z,0.70
2023-04-23T22:47:36.994Z,1.08
2023-04-23T22:50:05.762Z,1.30
2023-04-23T22:52:33.830Z,0.73
2023-04-23T22:55:02.281Z,1.13
2023-04-23T22:57:30.651Z,0.60
2023-04-23T22:59:58.800Z,0.80
2023-04-23T23:02:26.946Z,0.80
2023-04-23T23:04:56.646Z,1.00
2023-04-23T23:07:24.576Z,1.08
2023-04-23T23:09:52.504Z,0.90
2023-04-23T23:12:20.471Z,0.65
2023-04-23T23:14:48.440Z,0.70
2023-04-23T23:17:16.324Z,0.80
2023-04-23T23:19:44.474Z,0.80
2023-04-23T23:22:14.034Z,0.98
2023-04-23T23:24:42.054Z,0.60
2023-04-23T23:27:10.126Z,0.70
2023-04-23T23:29:38.076Z,0.70
2023-04-23T23:32:06.162Z,0.63
2023-04-23T23:34:34.283Z,0.60
2023-04-23T23:37:02.178Z,0.60
2023-04-23T23:39:31.428Z,0.90
2023-04-23T23:41:59.933Z,0.60
2023-04-23T23:44:27.926Z,0.70
2023-04-23T23:46:56.328Z,0.70
2023-04-23T23:49:24.429Z,0.60
2023-04-23T23:51:52.420Z,0.60
2023-04-23T23:54:20.399Z,0.82
2023-04-23T23:56:49.661Z,0.63
2023-04-23T23:59:17.549Z,0.70
